createdAt,value
2018-09-21T00:01:11.079Z,6.77
2018-09-21T00:03:40.436Z,7.30
2018-09-21T00:06:09.737Z,8.00
2018-09-21T00:08:40.283Z,8.43
2018-09-21T00:11:09.570Z,9.67
2018-09-21T00:13:38.817Z,5.90
2018-09-21T00:16:08.091Z,11.77
2018-09-21T00:18:37.892Z,10.97
2018-09-21T00:21:07.282Z,7.90
2018-09-21T00:23:36.607Z,10.60
2018-09-21T00:26:05.892Z,11.93
2018-09-21T00:28:35.130Z,8.33
2018-09-21T00:31:04.348Z,7.47
2018-09-21T00:33:33.666Z,7.30
2018-09-21T00:36:02.924Z,6.10
2018-09-21T00:38:32.195Z,7.57
2018-09-21T00:41:01.768Z,10.57
2018-09-21T00:43:31.105Z,7.67
2018-09-21T00:46:00.394Z,9.57
2018-09-21T00:48:29.943Z,7.47
2018-09-21T00:50:59.230Z,7.13
2018-09-21T00:53:28.808Z,6.60
2018-09-21T00:55:58.007Z,8.60
2018-09-21T00:58:27.401Z,8.00
2018-09-21T01:00:56.644Z,8.60
2018-09-21T01:03:26.360Z,6.33
2018-09-21T01:05:55.693Z,9.07
2018-09-21T01:08:25.132Z,9.70
2018-09-21T01:10:54.476Z,13.17
2018-09-21T01:13:23.763Z,9.17
2018-09-21T01:15:53.091Z,7.27
2018-09-21T01:18:22.355Z,8.70
2018-09-21T01:20:51.654Z,12.30
2018-09-21T01:23:20.882Z,8.47
2018-09-21T01:25:50.169Z,9.57
2018-09-21T01:28:19.421Z,10.73
2018-09-21T01:30:48.968Z,8.60
2018-09-21T01:33:18.217Z,7.50
2018-09-21T01:35:47.540Z,7.40
2018-09-21T01:38:16.763Z,7.87
2018-09-21T01:40:46.282Z,7.90
2018-09-21T01:43:15.552Z,7.00
2018-09-21T01:45:44.838Z,7.80
2018-09-21T01:48:14.382Z,7.07
2018-09-21T01:50:43.575Z,8.13
2018-09-21T01:53:12.826Z,6.97
2018-09-21T01:55:42.044Z,6.13
2018-09-21T01:58:13.413Z,8.40
2018-09-21T02:00:42.667Z,6.50
2018-09-21T02:03:11.930Z,8.13
2018-09-21T02:05:41.236Z,7.73
2018-09-21T02:08:10.552Z,9.43
2018-09-21T02:10:39.918Z,9.20
2018-09-21T02:13:09.269Z,10.00
2018-09-21T02:15:38.912Z,10.37
2018-09-21T02:18:08.427Z,8.37
2018-09-21T02:20:37.863Z,9.33
2018-09-21T02:23:07.090Z,8.67
2018-09-21T02:25:36.371Z,9.37
2018-09-21T02:28:05.696Z,8.63
2018-09-21T02:30:35.071Z,9.20
2018-09-21T02:33:04.350Z,5.83
2018-09-21T02:35:33.627Z,8.80
2018-09-21T02:38:02.991Z,6.77
2018-09-21T02:40:32.302Z,6.73
2018-09-21T02:43:01.635Z,9.10
2018-09-21T02:45:31.028Z,6.00
2018-09-21T02:48:00.269Z,7.20
2018-09-21T02:50:29.547Z,11.73
2018-09-21T02:52:58.821Z,7.80
2018-09-21T02:55:27.988Z,7.27
2018-09-21T02:57:57.779Z,6.77
2018-09-21T03:00:27.069Z,9.10
2018-09-21T03:02:56.283Z,7.90
2018-09-21T03:05:25.603Z,8.63
2018-09-21T03:07:54.957Z,8.17
2018-09-21T03:10:24.191Z,9.97
2018-09-21T03:12:53.547Z,9.13
2018-09-21T03:15:22.845Z,7.60
2018-09-21T03:17:52.100Z,7.47
2018-09-21T03:20:21.412Z,6.27
2018-09-21T03:22:50.816Z,8.60
2018-09-21T03:25:20.105Z,6.20
2018-09-21T03:27:49.287Z,6.60
2018-09-21T03:30:18.568Z,7.53
2018-09-21T03:32:47.935Z,9.50
2018-09-21T03:35:17.468Z,7.17
2018-09-21T03:37:46.754Z,13.37
2018-09-21T03:40:15.999Z,10.90
2018-09-21T03:42:45.286Z,11.17
2018-09-21T03:45:14.534Z,7.43
2018-09-21T03:47:43.803Z,7.10
2018-09-21T03:50:13.092Z,8.03
2018-09-21T03:52:42.338Z,7.00
2018-09-21T03:55:11.723Z,8.60
2018-09-21T03:57:41.042Z,9.80
2018-09-21T04:00:10.449Z,8.23
2018-09-21T04:02:40.064Z,12.17
2018-09-21T04:05:09.375Z,11.87
2018-09-21T04:07:38.624Z,6.13
2018-09-21T04:10:07.895Z,6.20
2018-09-21T04:12:37.219Z,9.33
2018-09-21T04:15:07.585Z,9.07
2018-09-21T04:17:36.861Z,6.80
2018-09-21T04:20:06.204Z,10.93
2018-09-21T04:22:35.591Z,8.47
2018-09-21T04:25:06.113Z,10.67
2018-09-21T04:27:35.752Z,13.13
2018-09-21T04:30:05.146Z,11.80
2018-09-21T04:32:34.414Z,8.23
2018-09-21T04:35:03.771Z,9.00
2018-09-21T04:37:33.036Z,9.10
2018-09-21T04:40:02.391Z,8.60
2018-09-21T04:42:31.709Z,6.83
2018-09-21T04:45:01.059Z,7.83
2018-09-21T04:47:30.343Z,9.13
2018-09-21T04:49:59.615Z,8.00
2018-09-21T04:52:28.946Z,9.60
2018-09-21T04:54:58.118Z,10.30
2018-09-21T04:57:27.375Z,8.60
2018-09-21T04:59:56.699Z,7.50
2018-09-21T05:02:26.253Z,7.97
2018-09-21T05:04:55.579Z,10.27
2018-09-21T05:07:24.883Z,5.93
2018-09-21T05:09:54.198Z,7.60
2018-09-21T05:12:23.507Z,10.53
2018-09-21T05:14:52.791Z,9.53
2018-09-21T05:17:22.062Z,7.87
2018-09-21T05:19:51.419Z,6.67
2018-09-21T05:22:21.192Z,8.30
2018-09-21T05:24:50.448Z,10.23
2018-09-21T05:27:19.658Z,9.37
2018-09-21T05:29:48.920Z,8.77
2018-09-21T05:32:18.338Z,8.50
2018-09-21T05:34:47.860Z,8.37
2018-09-21T05:37:17.173Z,9.80
2018-09-21T05:39:46.401Z,9.30
2018-09-21T05:42:15.804Z,13.57
2018-09-21T05:44:45.026Z,8.83
2018-09-21T05:47:14.323Z,6.73
2018-09-21T05:49:43.774Z,8.53
2018-09-21T05:52:13.095Z,8.90
2018-09-21T05:54:42.447Z,17.17
2018-09-21T05:57:11.680Z,10.87
2018-09-21T05:59:40.999Z,6.77
2018-09-21T06:02:10.394Z,11.83
2018-09-21T06:04:39.648Z,9.43
2018-09-21T06:07:08.936Z,12.13
2018-09-21T06:09:38.243Z,8.13
2018-09-21T06:12:07.591Z,10.57
2018-09-21T06:14:36.843Z,6.70
2018-09-21T06:17:06.163Z,12.33
2018-09-21T06:19:35.426Z,10.73
2018-09-21T06:22:04.748Z,8.90
2018-09-21T06:24:33.943Z,9.03
2018-09-21T06:27:03.220Z,7.60
2018-09-21T06:29:32.552Z,11.77
2018-09-21T06:32:01.849Z,18.70
2018-09-21T06:34:31.126Z,9.43
2018-09-21T06:39:52.600Z,13.97
2018-09-21T06:42:22.233Z,16.13
2018-09-21T06:44:51.542Z,10.97
2018-09-21T06:47:20.832Z,7.77
2018-09-21T06:49:50.309Z,16.30
2018-09-21T06:52:19.601Z,8.50
2018-09-21T06:54:48.940Z,11.77
2018-09-21T06:57:18.216Z,15.90
2018-09-21T06:59:47.606Z,11.03
2018-09-21T07:02:16.902Z,10.77
2018-09-21T07:04:46.161Z,12.93
2018-09-21T07:07:15.998Z,11.27
2018-09-21T07:09:45.375Z,8.83
2018-09-21T07:12:15.260Z,7.97
2018-09-21T07:14:44.544Z,10.70
2018-09-21T07:17:13.917Z,10.80
2018-09-21T07:19:43.332Z,13.17
2018-09-21T07:22:12.711Z,12.07
2018-09-21T07:24:42.472Z,7.40
2018-09-21T07:27:11.835Z,11.53
2018-09-21T07:29:41.175Z,8.63
2018-09-21T07:32:10.450Z,10.77
2018-09-21T07:34:39.779Z,13.20
2018-09-21T07:37:09.263Z,7.37
2018-09-21T07:39:38.634Z,11.97
2018-09-21T07:42:07.973Z,15.47
2018-09-21T07:44:37.575Z,8.83
2018-09-21T07:47:07.018Z,9.20
2018-09-21T07:49:36.271Z,9.63
2018-09-21T07:52:05.700Z,8.90
2018-09-21T07:54:35.067Z,8.83
2018-09-21T07:57:04.307Z,7.97
2018-09-21T07:59:33.667Z,16.97
2018-09-21T08:02:03.000Z,15.23
2018-09-21T08:04:32.384Z,10.37
2018-09-21T08:07:01.659Z,8.70
2018-09-21T08:09:30.971Z,7.50
2018-09-21T08:12:00.371Z,11.40
2018-09-21T08:14:29.637Z,5.73
2018-09-21T08:16:58.981Z,7.37
2018-09-21T08:19:28.239Z,11.97
2018-09-21T08:21:57.603Z,10.93
2018-09-21T08:24:26.868Z,9.40
2018-09-21T08:26:56.201Z,7.13
2018-09-21T08:29:25.612Z,9.07
2018-09-21T08:31:54.967Z,7.17
2018-09-21T08:34:24.754Z,7.90
2018-09-21T08:36:54.077Z,7.60
2018-09-21T08:39:23.332Z,8.53
2018-09-21T08:41:52.709Z,7.27
2018-09-21T08:44:21.998Z,13.67
2018-09-21T08:46:51.375Z,9.97
2018-09-21T08:49:20.815Z,17.00
2018-09-21T08:51:50.151Z,11.23
2018-09-21T08:54:19.487Z,10.83
2018-09-21T08:56:48.731Z,4.60
2018-09-21T08:59:18.067Z,14.40
2018-09-21T09:01:47.364Z,16.80
2018-09-21T09:04:16.724Z,7.50
2018-09-21T09:06:46.128Z,14.67
2018-09-21T09:09:15.440Z,10.33
2018-09-21T09:11:44.889Z,13.70
2018-09-21T09:14:14.655Z,6.60
2018-09-21T09:16:44.055Z,7.23
2018-09-21T09:19:13.341Z,8.17
2018-09-21T09:21:42.639Z,11.23
2018-09-21T09:24:11.931Z,7.40
2018-09-21T09:26:41.162Z,6.67
2018-09-21T09:29:10.495Z,5.93
2018-09-21T09:31:39.835Z,7.33
2018-09-21T09:34:09.723Z,8.87
2018-09-21T09:36:39.007Z,5.53
2018-09-21T09:39:11.655Z,5.47
2018-09-21T09:41:42.165Z,5.67
2018-09-21T09:44:11.799Z,6.33
2018-09-21T09:46:41.094Z,6.37
2018-09-21T09:49:10.425Z,7.03
2018-09-21T09:51:40.033Z,8.33
2018-09-21T09:54:09.570Z,6.27
2018-09-21T09:56:38.843Z,9.03
2018-09-21T09:59:08.761Z,7.20
2018-09-21T10:01:38.580Z,4.37
2018-09-21T10:04:07.894Z,8.23
2018-09-21T10:06:38.533Z,11.23
2018-09-21T10:09:10.340Z,6.73
2018-09-21T10:11:41.009Z,8.10
2018-09-21T10:14:10.496Z,7.93
2018-09-21T10:16:39.820Z,8.23
2018-09-21T10:19:09.155Z,8.67
2018-09-21T10:21:38.516Z,8.00
2018-09-21T10:24:07.903Z,9.07
2018-09-21T10:26:37.297Z,6.90
2018-09-21T10:29:06.496Z,7.33
2018-09-21T10:31:35.795Z,11.97
2018-09-21T10:34:06.051Z,9.17
2018-09-21T10:36:35.513Z,11.47
2018-09-21T10:39:06.679Z,7.50
2018-09-21T10:41:36.463Z,11.73
2018-09-21T10:44:05.744Z,10.37
2018-09-21T10:46:35.162Z,12.27
2018-09-21T10:49:04.567Z,9.37
2018-09-21T10:51:34.439Z,10.27
2018-09-21T10:54:03.733Z,10.77
2018-09-21T10:56:33.058Z,12.10
2018-09-21T10:59:16.823Z,10.27
2018-09-21T11:01:46.218Z,15.50
2018-09-21T11:04:16.964Z,9.73
2018-09-21T11:06:46.380Z,14.37
2018-09-21T11:09:15.753Z,11.87
2018-09-21T11:11:46.736Z,11.13
2018-09-21T11:14:17.176Z,11.63
2018-09-21T11:16:47.902Z,9.67
2018-09-21T11:19:31.472Z,10.13
2018-09-21T11:22:00.775Z,13.17
2018-09-21T11:24:38.741Z,10.50
2018-09-21T11:27:08.118Z,11.00
2018-09-21T11:29:37.357Z,11.70
2018-09-21T11:32:10.583Z,12.63
2018-09-21T11:34:41.124Z,10.63
2018-09-21T11:37:10.539Z,11.40
2018-09-21T11:39:39.787Z,10.40
2018-09-21T11:42:09.155Z,9.10
2018-09-21T11:44:39.404Z,9.97
2018-09-21T11:47:08.894Z,9.83
2018-09-21T11:49:38.162Z,9.07
2018-09-21T11:52:07.468Z,13.20
2018-09-21T11:54:36.815Z,10.60
2018-09-21T11:57:06.039Z,10.70
2018-09-21T11:59:35.296Z,10.53
2018-09-21T12:02:04.688Z,13.27
2018-09-21T12:04:33.962Z,14.93
2018-09-21T12:07:08.164Z,9.23
2018-09-21T12:09:37.565Z,8.77
2018-09-21T12:12:06.791Z,8.70
2018-09-21T12:14:36.444Z,9.57
2018-09-21T12:17:05.807Z,11.07
2018-09-21T12:19:35.124Z,8.10
2018-09-21T12:22:04.478Z,8.17
2018-09-21T12:24:35.202Z,7.83
2018-09-21T12:27:04.523Z,8.37
2018-09-21T12:29:35.101Z,9.33
2018-09-21T12:32:04.444Z,12.30
2018-09-21T12:34:33.714Z,7.03
2018-09-21T12:37:03.396Z,7.67
2018-09-21T12:39:32.677Z,8.00
2018-09-21T12:42:02.030Z,6.87
2018-09-21T12:44:31.450Z,6.97
2018-09-21T12:47:02.256Z,8.40
2018-09-21T12:49:33.515Z,8.83
2018-09-21T12:52:02.786Z,6.57
2018-09-21T12:54:32.062Z,8.67
2018-09-21T12:57:01.723Z,5.63
2018-09-21T12:59:31.330Z,6.27
2018-09-21T13:02:00.729Z,6.73
2018-09-21T13:04:30.159Z,6.63
2018-09-21T13:06:59.552Z,3.30
2018-09-21T13:09:28.923Z,6.53
2018-09-21T13:11:58.232Z,4.27
2018-09-21T13:14:29.634Z,5.93
2018-09-21T13:16:59.366Z,7.10
2018-09-21T13:19:28.811Z,3.67
2018-09-21T13:21:58.161Z,2.60
2018-09-21T13:24:29.107Z,4.33
2018-09-21T13:26:58.930Z,3.93
2018-09-21T13:29:28.350Z,5.80
2018-09-21T13:31:57.749Z,3.30
2018-09-21T13:34:27.725Z,3.67
2018-09-21T13:36:57.130Z,4.27
2018-09-21T13:39:26.526Z,3.23
2018-09-21T13:41:55.888Z,5.67
2018-09-21T13:44:25.731Z,2.53
2018-09-21T13:46:55.130Z,4.73
2018-09-21T13:49:25.314Z,3.07
2018-09-21T13:51:54.740Z,2.93
2018-09-21T13:54:24.090Z,5.30
2018-09-21T13:56:53.603Z,2.97
2018-09-21T13:59:22.859Z,1.80
2018-09-21T14:01:52.143Z,3.40
2018-09-21T14:04:21.473Z,3.03
2018-09-21T14:06:50.767Z,3.83
2018-09-21T14:09:20.138Z,2.93
2018-09-21T14:11:49.447Z,2.87
2018-09-21T14:14:18.819Z,2.27
2018-09-21T14:16:48.387Z,2.93
2018-09-21T14:19:17.631Z,2.73
2018-09-21T14:21:46.860Z,3.00
2018-09-21T14:24:16.223Z,1.83
2018-09-21T14:26:45.551Z,3.87
2018-09-21T14:29:14.827Z,3.10
2018-09-21T14:31:44.845Z,6.17
2018-09-21T14:34:14.087Z,3.43
2018-09-21T14:36:43.360Z,4.53
2018-09-21T14:39:12.742Z,7.50
2018-09-21T14:41:41.978Z,2.73
2018-09-21T14:44:11.679Z,2.60
2018-09-21T14:46:41.085Z,3.10
2018-09-21T14:49:10.576Z,4.00
2018-09-21T14:51:39.855Z,3.23
2018-09-21T14:54:09.140Z,4.30
2018-09-21T14:56:38.493Z,3.10
2018-09-21T14:59:07.879Z,3.57
2018-09-21T15:01:37.283Z,3.40
2018-09-21T15:04:06.735Z,2.87
2018-09-21T15:06:36.006Z,6.67
2018-09-21T15:09:10.576Z,3.13
2018-09-21T15:11:40.440Z,2.80
2018-09-21T15:14:10.652Z,3.10
2018-09-21T15:16:39.965Z,4.13
2018-09-21T15:19:10.871Z,3.07
2018-09-21T15:21:40.314Z,3.17
2018-09-21T15:24:09.664Z,1.97
2018-09-21T15:26:39.062Z,3.73
2018-09-21T15:29:08.746Z,2.10
2018-09-21T15:31:38.127Z,4.07
2018-09-21T15:34:07.625Z,3.37
2018-09-21T15:36:37.087Z,4.23
2018-09-21T15:39:21.916Z,5.20
2018-09-21T15:41:51.542Z,4.30
2018-09-21T15:44:20.863Z,3.03
2018-09-21T15:46:50.192Z,6.83
2018-09-21T15:49:19.987Z,4.83
2018-09-21T15:51:49.260Z,4.10
2018-09-21T15:54:20.692Z,4.17
2018-09-21T15:56:50.012Z,4.03
2018-09-21T15:59:19.491Z,5.63
2018-09-21T16:01:48.850Z,3.77
2018-09-21T16:04:18.213Z,4.83
2018-09-21T16:06:47.582Z,4.30
2018-09-21T16:09:16.983Z,7.50
2018-09-21T16:11:47.396Z,2.67
2018-09-21T16:14:17.888Z,3.37
2018-09-21T16:16:47.388Z,4.70
2018-09-21T16:19:16.747Z,3.30
2018-09-21T16:21:46.155Z,4.57
2018-09-21T16:24:15.581Z,4.23
2018-09-21T16:26:45.623Z,2.47
2018-09-21T16:29:15.320Z,7.33
2018-09-21T16:31:44.890Z,3.43
2018-09-21T16:34:14.194Z,6.90
2018-09-21T16:36:43.741Z,4.20
2018-09-21T16:39:13.387Z,6.30
2018-09-21T16:41:42.878Z,4.47
2018-09-21T16:44:12.625Z,5.90
2018-09-21T16:46:43.256Z,6.70
2018-09-21T16:49:12.588Z,10.43
2018-09-21T16:51:42.452Z,9.17
2018-09-21T16:54:11.769Z,3.53
2018-09-21T16:56:41.130Z,6.47
2018-09-21T16:59:10.566Z,5.47
2018-09-21T17:01:39.955Z,9.00
2018-09-21T17:04:11.413Z,6.40
2018-09-21T17:06:40.850Z,5.67
2018-09-21T17:09:11.945Z,5.80
2018-09-21T17:11:41.279Z,5.40
2018-09-21T17:14:10.615Z,4.83
2018-09-21T17:16:39.975Z,4.17
2018-09-21T17:19:09.365Z,5.23
2018-09-21T17:21:38.756Z,7.67
2018-09-21T17:24:08.175Z,1.90
2018-09-21T17:26:37.498Z,6.40
2018-09-21T17:29:07.000Z,3.70
2018-09-21T17:31:36.387Z,4.07
2018-09-21T17:34:06.855Z,5.80
2018-09-21T17:36:36.153Z,7.17
2018-09-21T17:39:08.964Z,4.20
2018-09-21T17:41:38.322Z,4.83
2018-09-21T17:44:07.652Z,4.17
2018-09-21T17:46:39.023Z,2.23
2018-09-21T17:49:08.772Z,8.03
2018-09-21T17:51:38.214Z,9.83
2018-09-21T17:54:07.552Z,4.73
2018-09-21T17:56:37.148Z,6.37
2018-09-21T17:59:08.584Z,7.43
2018-09-21T18:01:38.044Z,5.07
2018-09-21T18:04:07.416Z,3.33
2018-09-21T18:06:36.749Z,5.20
2018-09-21T18:09:09.761Z,6.50
2018-09-21T18:11:39.135Z,4.07
2018-09-21T18:14:08.650Z,2.47
2018-09-21T18:16:37.992Z,4.70
2018-09-21T18:19:07.621Z,4.83
2018-09-21T18:21:37.015Z,5.70
2018-09-21T18:24:06.412Z,6.03
2018-09-21T18:26:35.844Z,2.70
2018-09-21T18:29:05.231Z,3.63
2018-09-21T18:31:34.871Z,7.53
2018-09-21T18:34:04.175Z,5.73
2018-09-21T18:36:33.481Z,4.67
2018-09-21T18:39:03.219Z,2.73
2018-09-21T18:41:32.539Z,3.13
2018-09-21T18:44:01.948Z,4.47
2018-09-21T18:46:31.264Z,5.87
2018-09-21T18:49:00.790Z,6.37
2018-09-21T18:51:30.090Z,7.00
2018-09-21T18:53:59.350Z,2.63
2018-09-21T18:56:28.727Z,3.23
2018-09-21T18:58:58.139Z,3.83
2018-09-21T19:01:27.541Z,3.13
2018-09-21T19:03:56.855Z,1.67
2018-09-21T19:06:26.063Z,3.60
2018-09-21T19:08:55.343Z,2.83
2018-09-21T19:11:24.559Z,3.13
2018-09-21T19:13:54.085Z,4.07
2018-09-21T19:16:23.545Z,2.03
2018-09-21T19:18:52.857Z,2.77
2018-09-21T19:21:22.088Z,2.93
2018-09-21T19:23:51.384Z,3.83
2018-09-21T19:26:20.771Z,7.63
2018-09-21T19:28:50.059Z,3.03
2018-09-21T19:31:19.735Z,5.23
2018-09-21T19:33:49.080Z,2.93
2018-09-21T19:36:18.454Z,3.50
2018-09-21T19:38:47.799Z,4.90
2018-09-21T19:41:17.094Z,2.57
2018-09-21T19:43:46.531Z,5.30
2018-09-21T19:46:15.939Z,2.47
2018-09-21T19:48:45.199Z,2.93
2018-09-21T19:51:14.597Z,4.83
2018-09-21T19:53:43.992Z,3.73
2018-09-21T19:56:13.283Z,2.63
2018-09-21T19:58:42.535Z,3.90
2018-09-21T20:01:11.889Z,3.07
2018-09-21T20:03:41.320Z,4.97
2018-09-21T20:06:10.542Z,3.17
2018-09-21T20:08:39.838Z,4.27
2018-09-21T20:11:09.108Z,1.30
2018-09-21T20:13:38.372Z,4.70
2018-09-21T20:16:08.175Z,4.17
2018-09-21T20:18:37.454Z,2.57
2018-09-21T20:21:07.148Z,4.17
2018-09-21T20:23:36.537Z,6.30
2018-09-21T20:26:05.719Z,3.43
2018-09-21T20:28:35.017Z,2.03
2018-09-21T20:31:09.702Z,3.63
2018-09-21T20:33:38.973Z,3.50
2018-09-21T20:36:08.395Z,4.67
2018-09-21T20:38:38.105Z,2.90
2018-09-21T20:41:07.357Z,2.30
2018-09-21T20:43:36.871Z,3.53
2018-09-21T20:46:06.208Z,4.93
2018-09-21T20:48:35.595Z,3.50
2018-09-21T20:51:06.959Z,2.10
2018-09-21T20:53:38.762Z,3.00
2018-09-21T20:56:09.196Z,4.73
2018-09-21T20:58:38.562Z,4.10
2018-09-21T21:01:07.853Z,2.30
2018-09-21T21:03:37.155Z,4.77
2018-09-21T21:06:06.465Z,3.80
2018-09-21T21:08:35.751Z,3.13
2018-09-21T21:11:05.039Z,3.37
2018-09-21T21:13:34.315Z,6.27
2018-09-21T21:16:03.603Z,3.43
2018-09-21T21:18:33.979Z,2.07
2018-09-21T21:21:03.383Z,5.73
2018-09-21T21:23:32.664Z,5.43
2018-09-21T21:26:01.907Z,4.67
2018-09-21T21:28:31.254Z,3.07
2018-09-21T21:31:00.552Z,5.00
2018-09-21T21:33:29.863Z,3.87
2018-09-21T21:36:02.286Z,6.77
2018-09-21T21:38:31.562Z,3.50
2018-09-21T21:41:00.913Z,4.97
2018-09-21T21:43:32.226Z,5.60
2018-09-21T21:46:01.486Z,4.47
2018-09-21T21:48:30.892Z,5.50
2018-09-21T21:51:00.322Z,4.40
2018-09-21T21:53:29.635Z,7.07
2018-09-21T21:55:59.043Z,5.87
2018-09-21T21:58:28.492Z,4.97
2018-09-21T22:01:03.022Z,4.13
2018-09-21T22:03:32.293Z,5.73
2018-09-21T22:06:01.567Z,4.33
2018-09-21T22:08:30.840Z,8.53
2018-09-21T22:11:00.080Z,5.93
2018-09-21T22:13:34.635Z,5.00
2018-09-21T22:16:05.116Z,5.97
2018-09-21T22:18:34.315Z,7.10
2018-09-21T22:21:03.559Z,8.23
2018-09-21T22:23:32.856Z,5.33
2018-09-21T22:26:02.194Z,6.57
2018-09-21T22:28:31.459Z,4.77
2018-09-21T22:31:00.800Z,5.63
2018-09-21T22:33:30.040Z,7.50
2018-09-21T22:35:59.396Z,4.77
2018-09-21T22:38:28.731Z,5.27
2018-09-21T22:40:58.067Z,6.03
2018-09-21T22:43:27.347Z,7.73
2018-09-21T22:45:56.643Z,6.47
2018-09-21T22:48:26.014Z,5.17
2018-09-21T22:50:55.540Z,7.13
2018-09-21T22:53:24.863Z,10.30
2018-09-21T22:55:54.238Z,6.63
2018-09-21T22:58:23.494Z,8.67
2018-09-21T23:00:52.790Z,6.17
2018-09-21T23:03:22.073Z,4.77
2018-09-21T23:05:51.347Z,6.37
2018-09-21T23:08:24.167Z,8.13
2018-09-21T23:10:53.564Z,6.00
2018-09-21T23:13:22.886Z,7.23
2018-09-21T23:15:52.410Z,7.20
2018-09-21T23:18:21.692Z,4.87
2018-09-21T23:20:51.062Z,4.93
2018-09-21T23:23:20.343Z,5.17
2018-09-21T23:25:49.596Z,5.73
2018-09-21T23:28:18.859Z,5.40
2018-09-21T23:30:48.123Z,4.20
2018-09-21T23:33:17.358Z,10.90
2018-09-21T23:35:46.631Z,9.50
2018-09-21T23:38:15.875Z,8.73
2018-09-21T23:40:45.120Z,10.00
2018-09-21T23:43:14.617Z,7.73
2018-09-21T23:45:43.916Z,9.17
2018-09-21T23:48:13.234Z,8.73
2018-09-21T23:50:42.546Z,8.27
2018-09-21T23:53:11.806Z,11.30
2018-09-21T23:55:41.230Z,11.17
2018-09-21T23:58:10.466Z,11.30
